Time;durP1;ratioP1;P1;durP2;ratioP2;P2;SDS_P1;SDS_P2;PMS_P1;PMS_P2;Temp;Humidity;BMP_temperature;BMP_pressure;BME280_temperature;BME280_humidity;BME280_pressure;Samples;Min_cycle;Max_cycle;Signal;HPM_P1;HPM_P2
2023/09/18 00:00:25;;;;;;;3.20;2.90;;;22.80;99.90;;;;;;5055750;28;20189;-68
2023/09/18 00:02:51;;;;;;;3.63;2.83;;;22.80;99.90;;;;;;5056434;28;20181;-68
2023/09/18 00:05:16;;;;;;;3.95;3.08;;;22.70;99.90;;;;;;5056024;28;20201;-69
2023/09/18 00:07:43;;;;;;;3.05;2.75;;;22.70;99.90;;;;;;5054925;28;20189;-65
2023/09/18 00:10:13;;;;;;;7.25;3.33;;;22.70;99.90;;;;;;5054722;28;20228;-65
2023/09/18 00:12:41;;;;;;;3.67;3.08;;;22.70;99.90;;;;;;5051216;28;20279;-64
2023/09/18 00:15:08;;;;;;;4.15;2.83;;;22.60;99.90;;;;;;5053584;28;20220;-67
2023/09/18 00:17:37;;;;;;;4.53;2.70;;;22.60;99.90;;;;;;5056217;28;20217;-68
2023/09/18 00:20:06;;;;;;;3.60;2.80;;;22.60;99.90;;;;;;5053357;28;20188;-67
2023/09/18 00:22:32;;;;;;;3.90;2.92;;;22.60;99.90;;;;;;5054002;28;20330;-65
2023/09/18 00:25:01;;;;;;;4.80;2.95;;;22.60;99.90;;;;;;5055787;28;20205;-66
2023/09/18 00:27:29;;;;;;;4.10;2.95;;;22.60;99.90;;;;;;5070447;28;20260;-68
2023/09/18 00:29:55;;;;;;;4.72;2.80;;;22.60;99.90;;;;;;5054536;28;20189;-68
2023/09/18 00:32:21;;;;;;;4.40;2.85;;;22.60;99.90;;;;;;5052211;28;20181;-68
2023/09/18 00:34:46;;;;;;;4.75;2.92;;;22.60;99.90;;;;;;5053993;28;20208;-67
2023/09/18 00:37:12;;;;;;;3.95;2.78;;;22.60;99.90;;;;;;5038632;28;20227;-68
2023/09/18 00:39:44;;;;;;;5.95;3.20;;;22.60;99.90;;;;;;5052023;28;20190;-67
2023/09/18 00:42:13;;;;;;;3.45;2.97;;;22.60;99.90;;;;;;5045922;28;20169;-64
2023/09/18 00:44:40;;;;;;;3.72;2.92;;;22.60;99.90;;;;;;5055664;28;20177;-67
2023/09/18 00:47:08;;;;;;;6.22;3.00;;;22.60;99.90;;;;;;5059903;28;20183;-68
2023/09/18 00:49:38;;;;;;;3.42;2.95;;;22.60;99.90;;;;;;5036871;28;20187;-68
2023/09/18 00:52:05;;;;;;;4.60;3.15;;;22.60;99.90;;;;;;5054486;28;20177;-66
2023/09/18 00:54:32;;;;;;;4.88;2.90;;;22.60;99.90;;;;;;5047136;28;20197;-68
2023/09/18 00:57:01;;;;;;;3.55;3.00;;;22.60;99.90;;;;;;5035639;28;20178;-68
2023/09/18 00:59:27;;;;;;;3.78;3.17;;;22.60;99.90;;;;;;5051339;28;20181;-68
2023/09/18 01:01:52;;;;;;;3.65;2.83;;;22.60;99.90;;;;;;5052375;28;20200;-68
2023/09/18 01:04:19;;;;;;;6.32;3.17;;;22.60;99.90;;;;;;5056100;28;20177;-68
2023/09/18 01:06:48;;;;;;;3.35;2.90;;;22.60;99.90;;;;;;5041182;28;20186;-68
2023/09/18 01:09:16;;;;;;;4.20;2.85;;;22.60;99.90;;;;;;5054104;28;20215;-67
2023/09/18 01:11:59;;;;;;;4.00;2.90;;;22.60;99.90;;;;;;5041217;28;20181;-68
2023/09/18 01:14:55;;;;;;;3.55;3.00;;;22.60;99.90;;;;;;5039752;28;20448;-65
2023/09/18 01:17:21;;;;;;;4.15;2.90;;;22.60;99.90;;;;;;5047220;28;20197;-66
2023/09/18 01:19:47;;;;;;;3.58;3.03;;;22.60;99.90;;;;;;5037300;28;20174;-66
2023/09/18 01:22:19;;;;;;;4.22;3.10;;;22.60;99.90;;;;;;5054493;28;20204;-68
2023/09/18 01:24:49;;;;;;;5.57;3.13;;;22.50;99.90;;;;;;5035864;28;20234;-68
2023/09/18 01:27:18;;;;;;;3.78;2.95;;;22.50;99.90;;;;;;5054705;28;20204;-67
2023/09/18 01:29:45;;;;;;;4.07;3.00;;;22.40;99.90;;;;;;5067094;28;20181;-68
2023/09/18 01:32:10;;;;;;;3.22;2.65;;;22.50;99.90;;;;;;5059002;28;20221;-66
2023/09/18 01:34:54;;;;;;;4.03;2.85;;;22.40;99.90;;;;;;5068774;28;20239;-67
2023/09/18 01:37:23;;;;;;;4.85;3.53;;;22.40;99.90;;;;;;5054024;28;20191;-67
2023/09/18 01:39:53;;;;;;;5.97;3.15;;;22.40;99.90;;;;;;5049594;28;20192;-68
2023/09/18 01:42:22;;;;;;;6.00;3.38;;;22.40;99.90;;;;;;5052440;28;20184;-67
2023/09/18 01:44:52;;;;;;;4.40;2.97;;;22.30;99.90;;;;;;5052005;28;20234;-67
2023/09/18 01:47:20;;;;;;;5.35;3.10;;;22.30;99.90;;;;;;5051547;28;20302;-67
2023/09/18 01:49:46;;;;;;;5.82;3.15;;;22.30;99.90;;;;;;5052452;28;20204;-67
2023/09/18 01:52:12;;;;;;;4.00;3.53;;;22.30;99.90;;;;;;5068030;28;20181;-67
2023/09/18 01:54:38;;;;;;;5.22;3.30;;;22.30;99.90;;;;;;5051572;28;20229;-65
2023/09/18 01:57:04;;;;;;;3.33;3.03;;;22.30;99.90;;;;;;5055839;28;20181;-68
2023/09/18 01:59:30;;;;;;;5.20;3.35;;;22.30;99.90;;;;;;5053762;28;20211;-68
2023/09/18 02:01:56;;;;;;;5.55;3.35;;;22.30;99.90;;;;;;5051784;28;20178;-70
2023/09/18 02:04:25;;;;;;;4.47;3.20;;;22.30;99.90;;;;;;5053798;28;20181;-68
2023/09/18 02:06:51;;;;;;;5.20;3.40;;;22.40;99.90;;;;;;5036702;28;20213;-71
2023/09/18 02:09:17;;;;;;;4.82;3.20;;;22.40;99.90;;;;;;5053013;28;20190;-71
2023/09/18 02:11:48;;;;;;;8.52;3.28;;;22.50;99.90;;;;;;5052769;28;20196;-71
2023/09/18 02:14:14;;;;;;;5.25;3.35;;;22.60;99.90;;;;;;5052028;28;20197;-71
2023/09/18 02:16:43;;;;;;;6.10;3.65;;;22.70;99.90;;;;;;5052521;28;20169;-71
2023/09/18 02:19:13;;;;;;;5.78;3.10;;;22.80;99.90;;;;;;5053538;28;20177;-71
2023/09/18 02:21:38;;;;;;;4.45;2.95;;;22.90;99.90;;;;;;5033743;28;20198;-72
2023/09/18 02:24:04;;;;;;;6.53;3.00;;;23.00;99.90;;;;;;5051812;28;20196;-71
2023/09/18 02:26:30;;;;;;;4.25;2.55;;;23.10;99.90;;;;;;5052510;28;20178;-70
2023/09/18 02:28:59;;;;;;;6.85;2.80;;;23.20;99.90;;;;;;5052097;28;20520;-71
2023/09/18 02:31:25;;;;;;;6.32;2.70;;;23.20;99.90;;;;;;5052832;28;20218;-71
2023/09/18 02:33:50;;;;;;;4.45;2.65;;;23.20;99.90;;;;;;5050832;28;20181;-70
2023/09/18 02:36:16;;;;;;;5.30;2.47;;;23.20;99.90;;;;;;5053051;28;20549;-71
2023/09/18 02:38:42;;;;;;;4.45;2.60;;;23.10;99.90;;;;;;5052454;28;20574;-69
2023/09/18 02:41:08;;;;;;;5.05;2.80;;;23.20;99.90;;;;;;5053082;28;20196;-71
2023/09/18 02:43:34;;;;;;;2.95;2.40;;;23.10;99.90;;;;;;5051482;28;20204;-70
2023/09/18 02:45:59;;;;;;;4.38;2.47;;;23.10;99.90;;;;;;5049424;28;20214;-68
2023/09/18 02:48:27;;;;;;;5.47;2.80;;;23.00;99.90;;;;;;5040803;28;20192;-71
2023/09/18 02:50:53;;;;;;;3.60;2.70;;;23.00;99.90;;;;;;5051760;28;20181;-71
2023/09/18 02:53:20;;;;;;;4.32;2.53;;;22.90;99.90;;;;;;5052370;28;20184;-71
2023/09/18 02:55:53;;;;;;;5.15;2.70;;;22.80;99.90;;;;;;5052166;28;20201;-70
2023/09/18 02:58:19;;;;;;;5.28;3.05;;;22.80;99.90;;;;;;5051716;28;20184;-70
2023/09/18 03:00:51;;;;;;;5.68;3.28;;;22.70;99.90;;;;;;5051967;28;20189;-71
2023/09/18 03:03:19;;;;;;;6.57;3.10;;;22.70;99.90;;;;;;5051572;28;20288;-71
2023/09/18 03:05:44;;;;;;;4.55;3.05;;;22.60;99.90;;;;;;5051266;28;20188;-71
2023/09/18 03:08:12;;;;;;;6.10;3.05;;;22.50;99.90;;;;;;5050270;28;20256;-71
2023/09/18 03:10:40;;;;;;;4.38;2.75;;;22.50;99.90;;;;;;5050484;28;20198;-70
2023/09/18 03:13:12;;;;;;;4.72;3.08;;;22.50;99.90;;;;;;5053350;28;20181;-70
2023/09/18 03:15:38;;;;;;;5.78;3.22;;;22.50;99.90;;;;;;5051154;28;20292;-69
2023/09/18 03:18:07;;;;;;;4.43;2.70;;;22.50;99.90;;;;;;5052387;28;20193;-71
2023/09/18 03:20:37;;;;;;;5.20;2.63;;;22.50;99.90;;;;;;5052308;28;20192;-70
2023/09/18 03:23:03;;;;;;;6.38;2.40;;;22.50;99.90;;;;;;5054512;28;20177;-70
2023/09/18 03:25:31;;;;;;;4.25;2.50;;;22.50;99.90;;;;;;5053306;28;20177;-69
2023/09/18 03:27:58;;;;;;;4.97;2.38;;;22.40;99.90;;;;;;5053656;28;20181;-69
2023/09/18 03:30:24;;;;;;;3.65;2.53;;;22.40;99.90;;;;;;5054753;28;20188;-70
2023/09/18 03:32:52;;;;;;;5.22;2.55;;;22.40;99.90;;;;;;5055952;28;20276;-70
2023/09/18 03:35:19;;;;;;;4.15;2.75;;;22.40;99.90;;;;;;5055238;28;20197;-70
2023/09/18 03:37:49;;;;;;;4.05;2.40;;;22.40;99.90;;;;;;5037309;28;20200;-70
2023/09/18 03:40:19;;;;;;;3.65;2.20;;;22.40;99.90;;;;;;5056600;28;20236;-70
2023/09/18 03:42:45;;;;;;;5.47;2.60;;;22.40;99.90;;;;;;5054311;28;20189;-70
2023/09/18 03:45:19;;;;;;;4.85;2.70;;;22.40;99.90;;;;;;5055326;28;20189;-68
2023/09/18 03:47:45;;;;;;;5.13;2.80;;;22.40;99.90;;;;;;5053097;28;20184;-70
2023/09/18 03:50:13;;;;;;;4.57;2.63;;;22.40;99.90;;;;;;5057088;28;20173;-70
2023/09/18 03:52:39;;;;;;;4.22;2.38;;;22.40;99.90;;;;;;5054854;28;20227;-70
2023/09/18 03:55:08;;;;;;;3.25;2.33;;;22.40;99.90;;;;;;5035938;28;20197;-70
2023/09/18 03:57:35;;;;;;;4.07;2.30;;;22.40;99.90;;;;;;5053785;28;20177;-70
2023/09/18 04:00:00;;;;;;;6.47;2.70;;;22.30;99.90;;;;;;5053835;28;20189;-70
2023/09/18 04:02:30;;;;;;;5.70;2.47;;;22.30;99.90;;;;;;5044783;28;20193;-70
2023/09/18 04:04:55;;;;;;;5.45;2.30;;;22.30;99.90;;;;;;5053265;28;20811;-70
2023/09/18 04:07:21;;;;;;;5.88;2.35;;;22.20;99.90;;;;;;5056820;28;20212;-70
2023/09/18 04:09:47;;;;;;;3.50;2.50;;;22.20;99.90;;;;;;5054983;28;20181;-70
2023/09/18 04:12:15;;;;;;;3.42;2.10;;;22.20;99.90;;;;;;5048613;28;20200;-70
2023/09/18 04:14:43;;;;;;;4.30;2.70;;;22.10;99.90;;;;;;5057637;28;20232;-70
2023/09/18 04:17:09;;;;;;;5.30;2.45;;;22.10;99.90;;;;;;5057221;28;20192;-69
2023/09/18 04:19:34;;;;;;;5.05;2.63;;;22.00;99.90;;;;;;5056227;28;20231;-70
2023/09/18 04:22:00;;;;;;;4.28;2.20;;;22.00;99.90;;;;;;5055005;28;20183;-69
2023/09/18 04:24:28;;;;;;;7.20;2.53;;;22.00;99.90;;;;;;5055710;28;20189;-70
2023/09/18 04:26:54;;;;;;;5.63;2.10;;;21.90;99.90;;;;;;5054149;28;20185;-70
2023/09/18 04:29:22;;;;;;;6.00;2.40;;;21.90;99.90;;;;;;5054344;28;20188;-69
2023/09/18 04:31:50;;;;;;;6.68;2.50;;;21.90;99.90;;;;;;5053199;28;20185;-70
2023/09/18 04:34:16;;;;;;;3.92;2.40;;;21.90;99.90;;;;;;5054794;28;20205;-70
2023/09/18 04:36:44;;;;;;;7.68;2.65;;;21.90;99.90;;;;;;5054545;28;20216;-70
2023/09/18 04:39:09;;;;;;;5.43;2.42;;;21.90;99.90;;;;;;5052448;28;20201;-69
2023/09/18 04:41:40;;;;;;;6.13;2.10;;;21.90;99.90;;;;;;5051213;28;20184;-69
2023/09/18 04:44:06;;;;;;;6.32;2.30;;;21.90;99.90;;;;;;5053852;28;20211;-69
2023/09/18 04:46:34;;;;;;;4.10;1.83;;;21.80;99.90;;;;;;5053378;28;20193;-70
2023/09/18 04:49:00;;;;;;;3.95;2.22;;;21.80;99.90;;;;;;5053229;28;20204;-69
2023/09/18 04:51:25;;;;;;;5.00;2.13;;;21.80;99.90;;;;;;5052819;28;20189;-70
2023/09/18 04:53:51;;;;;;;3.72;2.13;;;21.80;99.90;;;;;;5054512;28;20193;-70
2023/09/18 04:56:22;;;;;;;4.53;2.10;;;21.80;99.90;;;;;;5052980;28;20208;-69
2023/09/18 04:58:47;;;;;;;4.55;2.05;;;21.80;99.90;;;;;;5053262;28;20173;-70
2023/09/18 05:01:13;;;;;;;6.85;2.63;;;21.90;99.90;;;;;;5053581;28;20288;-70
2023/09/18 05:03:38;;;;;;;5.25;2.30;;;21.90;99.90;;;;;;5054470;28;20330;-71
2023/09/18 05:06:04;;;;;;;4.15;2.20;;;21.90;99.90;;;;;;5053331;28;20406;-69
2023/09/18 05:08:32;;;;;;;4.97;2.45;;;21.90;99.90;;;;;;5038611;28;20197;-70
2023/09/18 05:10:58;;;;;;;5.88;2.50;;;21.90;99.90;;;;;;5053567;28;20189;-71
2023/09/18 05:13:27;;;;;;;5.03;2.08;;;21.90;99.90;;;;;;5051663;28;20323;-70
2023/09/18 05:15:52;;;;;;;3.25;2.20;;;21.90;99.90;;;;;;5053526;28;20469;-70
2023/09/18 05:18:21;;;;;;;7.80;2.40;;;21.90;99.90;;;;;;5052083;28;20177;-70
2023/09/18 05:20:47;;;;;;;3.45;2.10;;;21.90;99.90;;;;;;5053611;28;20184;-70
2023/09/18 05:23:15;;;;;;;5.05;2.20;;;22.00;99.90;;;;;;5052903;28;20177;-71
2023/09/18 05:25:44;;;;;;;4.28;2.10;;;22.00;99.90;;;;;;5054755;28;20400;-70
2023/09/18 05:28:11;;;;;;;2.95;2.00;;;22.00;99.90;;;;;;5052056;28;20490;-70
2023/09/18 05:30:38;;;;;;;2.78;2.00;;;22.00;99.90;;;;;;5056023;28;20254;-71
2023/09/18 05:33:06;;;;;;;9.18;2.30;;;22.00;99.90;;;;;;5068898;28;20185;-71
2023/09/18 05:35:36;;;;;;;5.55;2.35;;;22.10;99.90;;;;;;5052966;28;20193;-71
2023/09/18 05:38:05;;;;;;;5.10;2.28;;;22.10;99.90;;;;;;5070693;28;20196;-68
2023/09/18 05:40:31;;;;;;;4.32;2.00;;;22.20;99.90;;;;;;5053554;28;20177;-66
2023/09/18 05:42:59;;;;;;;4.47;2.00;;;22.20;99.90;;;;;;5052839;28;20263;-67
2023/09/18 05:45:26;;;;;;;4.00;2.10;;;22.20;99.90;;;;;;5050770;28;20353;-68
2023/09/18 05:47:53;;;;;;;3.58;1.75;;;22.20;99.90;;;;;;5052910;28;20264;-67
2023/09/18 05:50:19;;;;;;;2.17;1.42;;;22.20;99.90;;;;;;5043140;28;20197;-67
2023/09/18 05:52:47;;;;;;;3.47;1.65;;;22.30;99.90;;;;;;5053311;28;20986;-67
2023/09/18 05:55:13;;;;;;;4.57;1.63;;;22.30;99.90;;;;;;5050685;28;20216;-67
2023/09/18 05:57:42;;;;;;;4.18;1.73;;;22.30;99.90;;;;;;5052977;28;20197;-68
2023/09/18 06:00:08;;;;;;;2.75;1.60;;;22.30;99.90;;;;;;5052043;28;20185;-68
2023/09/18 06:02:34;;;;;;;3.03;1.70;;;22.30;99.90;;;;;;5055739;28;20188;-69
2023/09/18 06:05:00;;;;;;;3.60;1.45;;;22.30;99.90;;;;;;5053151;28;20201;-68
2023/09/18 06:07:32;;;;;;;3.45;1.40;;;22.30;99.90;;;;;;5050673;28;20185;-68
2023/09/18 06:10:00;;;;;;;2.72;1.30;;;22.30;99.90;;;;;;5037681;28;20181;-68
2023/09/18 06:12:26;;;;;;;2.58;1.25;;;22.30;99.90;;;;;;5051196;28;20197;-69
2023/09/18 06:14:52;;;;;;;2.78;1.42;;;22.40;99.90;;;;;;5038654;28;20201;-68
2023/09/18 06:17:18;;;;;;;2.08;1.40;;;22.40;99.90;;;;;;5071086;28;20173;-68
2023/09/18 06:19:47;;;;;;;5.05;1.77;;;22.40;99.90;;;;;;5036121;28;20231;-68
2023/09/18 06:22:13;;;;;;;3.28;1.40;;;22.40;99.90;;;;;;5050471;28;20177;-68
2023/09/18 06:24:39;;;;;;;2.88;1.20;;;22.40;99.90;;;;;;5033426;28;20177;-66
2023/09/18 06:27:07;;;;;;;4.32;1.75;;;22.50;99.90;;;;;;5053152;28;20236;-67
2023/09/18 06:29:34;;;;;;;3.50;1.70;;;22.50;99.90;;;;;;5052938;28;20173;-67
2023/09/18 06:32:02;;;;;;;2.80;1.48;;;22.50;99.90;;;;;;5053703;28;20272;-65
2023/09/18 06:34:30;;;;;;;2.15;1.20;;;22.50;99.90;;;;;;5069126;28;20201;-66
2023/09/18 06:36:56;;;;;;;2.22;1.13;;;22.50;99.90;;;;;;5052228;28;20189;-66
2023/09/18 06:39:23;;;;;;;1.95;1.08;;;22.50;99.90;;;;;;5052748;28;20277;-67
2023/09/18 06:41:49;;;;;;;3.13;1.40;;;22.50;99.90;;;;;;5051915;28;20178;-67
2023/09/18 06:44:15;;;;;;;2.65;1.20;;;22.50;99.90;;;;;;5053528;28;20247;-66
2023/09/18 06:46:40;;;;;;;3.55;1.50;;;22.60;99.90;;;;;;5076185;28;20173;-66
2023/09/18 06:49:06;;;;;;;2.38;1.20;;;22.60;99.90;;;;;;5059924;28;20177;-66
2023/09/18 06:51:32;;;;;;;2.13;1.10;;;22.60;99.90;;;;;;5053548;28;20173;-66
2023/09/18 06:54:02;;;;;;;3.80;1.33;;;22.60;99.90;;;;;;5054409;28;20170;-66
2023/09/18 06:56:28;;;;;;;2.30;1.20;;;22.60;99.90;;;;;;5040970;28;20194;-67
2023/09/18 06:58:56;;;;;;;1.85;1.08;;;22.60;99.90;;;;;;5043800;28;20341;-67
2023/09/18 07:01:24;;;;;;;1.73;1.20;;;22.70;99.90;;;;;;5054003;28;20167;-66
2023/09/18 07:03:50;;;;;;;4.38;1.45;;;22.70;99.90;;;;;;5037657;28;20265;-66
2023/09/18 07:06:20;;;;;;;1.48;0.95;;;22.70;99.90;;;;;;5054323;28;20273;-66
2023/09/18 07:08:46;;;;;;;2.10;0.98;;;22.70;99.90;;;;;;5042288;28;20181;-66
2023/09/18 07:11:12;;;;;;;3.20;1.20;;;22.70;99.90;;;;;;5040508;28;20173;-66
2023/09/18 07:13:38;;;;;;;2.65;1.00;;;22.70;99.90;;;;;;5055696;28;20238;-66
2023/09/18 07:16:06;;;;;;;2.80;1.08;;;22.80;99.90;;;;;;5041980;28;20200;-66
2023/09/18 07:18:32;;;;;;;2.83;1.10;;;22.80;99.90;;;;;;5055328;28;20162;-67
2023/09/18 07:20:58;;;;;;;3.05;1.10;;;22.80;99.90;;;;;;5065198;28;20174;-66
2023/09/18 07:23:24;;;;;;;2.75;1.27;;;22.90;99.90;;;;;;5041758;28;20179;-67
2023/09/18 07:25:49;;;;;;;2.15;1.05;;;22.90;99.90;;;;;;5073496;28;20174;-66
2023/09/18 07:28:19;;;;;;;4.20;1.42;;;22.90;99.90;;;;;;5062276;28;20524;-67
2023/09/18 07:30:45;;;;;;;2.92;1.38;;;22.90;99.90;;;;;;5055587;28;20219;-66
2023/09/18 07:33:17;;;;;;;3.92;1.20;;;22.90;99.90;;;;;;5064071;28;20234;-66
2023/09/18 07:35:47;;;;;;;2.13;1.10;;;22.90;99.90;;;;;;5055843;28;20219;-67
2023/09/18 07:38:12;;;;;;;3.63;1.25;;;22.90;99.90;;;;;;5055263;28;20251;-66
2023/09/18 07:40:40;;;;;;;2.08;1.27;;;23.00;99.90;;;;;;5054829;28;20178;-67
2023/09/18 07:43:10;;;;;;;2.17;1.10;;;23.00;99.90;;;;;;5054491;28;20169;-67
2023/09/18 07:45:39;;;;;;;2.78;1.15;;;23.00;99.90;;;;;;5055114;28;20343;-67
2023/09/18 07:48:06;;;;;;;2.35;1.30;;;23.00;99.90;;;;;;5055923;28;20185;-69
2023/09/18 07:50:33;;;;;;;1.98;1.30;;;23.10;99.90;;;;;;5031128;28;20204;-67
2023/09/18 07:53:02;;;;;;;2.63;1.40;;;23.10;99.90;;;;;;5056117;28;20181;-67
2023/09/18 07:55:30;;;;;;;2.70;1.30;;;23.10;99.90;;;;;;5060236;28;20201;-67
2023/09/18 07:57:59;;;;;;;2.92;1.30;;;23.10;99.90;;;;;;5045181;28;20184;-67
2023/09/18 08:00:25;;;;;;;3.75;1.45;;;23.10;99.90;;;;;;5055637;28;20251;-68
2023/09/18 08:02:54;;;;;;;1.45;1.02;;;23.10;99.90;;;;;;5054637;28;20201;-67
2023/09/18 08:05:19;;;;;;;2.55;1.20;;;23.10;99.90;;;;;;5052779;28;20194;-67
2023/09/18 08:07:47;;;;;;;1.17;1.02;;;23.10;99.90;;;;;;5027739;28;20178;-67
2023/09/18 08:10:16;;;;;;;3.55;1.30;;;23.10;99.90;;;;;;5059988;28;20185;-67
2023/09/18 08:12:44;;;;;;;3.05;1.27;;;23.10;99.90;;;;;;5036035;28;20268;-67
2023/09/18 08:15:12;;;;;;;2.83;1.10;;;23.10;99.90;;;;;;5072477;28;20200;-68
2023/09/18 08:17:37;;;;;;;1.85;1.00;;;23.10;99.90;;;;;;5056424;28;20236;-68
2023/09/18 08:20:11;;;;;;;2.22;1.15;;;23.10;99.90;;;;;;5055641;28;20193;-67
2023/09/18 08:22:37;;;;;;;2.83;1.10;;;23.10;99.90;;;;;;5062738;28;20207;-66
2023/09/18 08:25:05;;;;;;;1.50;1.05;;;23.10;99.90;;;;;;5056304;28;20240;-68
2023/09/18 08:27:31;;;;;;;2.33;0.88;;;23.10;99.90;;;;;;5072636;28;20289;-67
2023/09/18 08:29:56;;;;;;;1.98;1.10;;;23.10;99.90;;;;;;5045344;28;20281;-67
2023/09/18 08:32:22;;;;;;;2.22;1.50;;;23.10;99.90;;;;;;5056359;28;20215;-67
2023/09/18 08:34:47;;;;;;;3.17;1.50;;;23.10;99.90;;;;;;5055365;28;20266;-65
2023/09/18 08:37:13;;;;;;;2.13;1.17;;;23.10;99.90;;;;;;5055827;28;20264;-65
2023/09/18 08:39:41;;;;;;;3.67;1.40;;;23.10;99.90;;;;;;5070449;28;20209;-65
2023/09/18 08:42:13;;;;;;;3.60;1.20;;;23.10;99.90;;;;;;5070549;28;21214;-66
2023/09/18 08:44:40;;;;;;;2.05;1.10;;;23.10;99.90;;;;;;5054975;28;20253;-65
2023/09/18 08:47:09;;;;;;;1.50;1.08;;;23.10;99.90;;;;;;5033780;28;20201;-66
2023/09/18 08:49:37;;;;;;;1.30;1.13;;;23.20;99.90;;;;;;5060188;28;20177;-66
2023/09/18 08:52:05;;;;;;;1.77;1.00;;;23.20;99.90;;;;;;5063434;28;20181;-66
2023/09/18 08:54:33;;;;;;;2.65;1.23;;;23.20;99.90;;;;;;5030602;28;20419;-67
2023/09/18 08:56:59;;;;;;;2.08;1.40;;;23.30;99.90;;;;;;5047764;28;20208;-67
2023/09/18 08:59:26;;;;;;;2.13;1.20;;;23.30;99.90;;;;;;5038553;28;20173;-66
2023/09/18 09:01:52;;;;;;;1.60;1.30;;;23.30;99.90;;;;;;5050894;28;20441;-66
2023/09/18 09:04:21;;;;;;;2.60;1.40;;;23.40;99.90;;;;;;5029592;28;20282;-66
2023/09/18 09:06:50;;;;;;;1.92;0.98;;;23.40;99.90;;;;;;5055351;28;20192;-67
2023/09/18 09:09:19;;;;;;;2.20;1.10;;;23.40;99.90;;;;;;5042021;28;20181;-66
2023/09/18 09:11:49;;;;;;;2.20;1.00;;;23.40;99.90;;;;;;5053860;28;20220;-67
2023/09/18 09:14:21;;;;;;;1.90;1.15;;;23.50;99.90;;;;;;5052449;28;20185;-67
2023/09/18 09:16:48;;;;;;;1.95;1.02;;;23.50;99.90;;;;;;5070240;28;20267;-66
2023/09/18 09:19:17;;;;;;;1.58;1.00;;;23.50;99.90;;;;;;5038083;28;20343;-66
2023/09/18 09:21:46;;;;;;;4.20;1.60;;;23.50;99.90;;;;;;5043926;28;20177;-66
2023/09/18 09:24:13;;;;;;;4.03;1.60;;;23.50;99.90;;;;;;5057389;28;20173;-66
2023/09/18 09:26:41;;;;;;;2.28;1.00;;;23.50;99.90;;;;;;5053897;28;20199;-66
2023/09/18 09:29:21;;;;;;;5.50;1.38;;;23.50;99.90;;;;;;5054913;28;20256;-67
2023/09/18 09:31:47;;;;;;;1.45;1.05;;;23.50;99.90;;;;;;5053294;28;20272;-66
2023/09/18 09:34:27;;;;;;;2.58;1.35;;;23.50;99.90;;;;;;5052679;28;20186;-67
2023/09/18 09:36:54;;;;;;;2.30;1.02;;;23.60;99.90;;;;;;5054263;28;20189;-67
2023/09/18 09:39:23;;;;;;;2.38;1.20;;;23.60;99.90;;;;;;5053079;28;20189;-66
2023/09/18 09:41:51;;;;;;;6.65;3.20;;;23.60;99.90;;;;;;5053518;28;20176;-66
2023/09/18 09:44:17;;;;;;;5.35;2.60;;;23.60;99.90;;;;;;5050656;28;20270;-66
2023/09/18 09:46:51;;;;;;;2.92;1.88;;;23.60;99.90;;;;;;5032995;28;20264;-67
2023/09/18 09:49:23;;;;;;;2.85;1.67;;;23.60;99.90;;;;;;5020441;28;20171;-68
2023/09/18 09:51:48;;;;;;;1.88;1.40;;;23.60;99.90;;;;;;5036599;28;20192;-65
2023/09/18 09:54:25;;;;;;;2.03;1.20;;;23.70;99.90;;;;;;5036915;28;20181;-65
2023/09/18 09:56:51;;;;;;;2.40;1.13;;;23.70;99.90;;;;;;5053494;28;20370;-65
2023/09/18 09:59:21;;;;;;;2.45;1.35;;;23.70;99.90;;;;;;5052951;28;20165;-66
2023/09/18 10:01:51;;;;;;;1.73;0.90;;;23.70;99.90;;;;;;5046601;28;20216;-66
2023/09/18 10:04:18;;;;;;;3.20;1.45;;;23.80;99.90;;;;;;5036499;28;20201;-67
2023/09/18 10:06:55;;;;;;;2.40;1.23;;;23.90;99.90;;;;;;5053676;28;20211;-66
2023/09/18 10:09:22;;;;;;;2.80;1.20;;;23.90;99.90;;;;;;5050550;28;20185;-67
2023/09/18 10:11:52;;;;;;;2.20;0.98;;;24.10;99.90;;;;;;5033999;28;20767;-66
2023/09/18 10:14:30;;;;;;;2.58;1.20;;;24.20;99.90;;;;;;5034219;28;20221;-67
2023/09/18 10:16:58;;;;;;;2.28;1.50;;;24.30;99.90;;;;;;5046544;28;20180;-67
2023/09/18 10:19:44;;;;;;;2.60;1.27;;;24.40;99.90;;;;;;5054113;28;20272;-67
2023/09/18 10:22:26;;;;;;;2.70;1.10;;;24.50;99.90;;;;;;5036293;28;20205;-70
2023/09/18 10:25:00;;;;;;;2.08;0.95;;;24.70;99.90;;;;;;5053125;28;20181;-69
2023/09/18 10:27:26;;;;;;;2.50;1.15;;;25.00;99.90;;;;;;5051704;28;20188;-69
2023/09/18 10:29:54;;;;;;;1.08;0.85;;;25.30;99.90;;;;;;5050347;28;20205;-71
2023/09/18 10:32:21;;;;;;;2.05;1.10;;;25.70;99.90;;;;;;5051937;28;20207;-70
2023/09/18 10:34:48;;;;;;;3.00;1.10;;;26.00;99.90;;;;;;5036359;28;20224;-69
2023/09/18 10:37:15;;;;;;;1.00;0.80;;;26.30;99.90;;;;;;5034400;28;20337;-71
2023/09/18 10:39:43;;;;;;;1.60;1.00;;;26.50;99.90;;;;;;5053602;28;20223;-71
2023/09/18 10:42:10;;;;;;;4.97;1.25;;;26.70;99.90;;;;;;5037176;28;20201;-71
2023/09/18 10:44:39;;;;;;;2.40;1.30;;;26.90;99.90;;;;;;5063845;28;20202;-68
2023/09/18 10:47:10;;;;;;;1.10;0.80;;;27.00;99.90;;;;;;5059330;28;20187;-70
2023/09/18 10:49:36;;;;;;;1.80;1.00;;;27.10;99.90;;;;;;5036681;28;20180;-70
2023/09/18 10:52:10;;;;;;;2.40;1.25;;;27.20;99.90;;;;;;5052394;28;20208;-70
2023/09/18 10:54:39;;;;;;;4.05;1.38;;;27.20;99.90;;;;;;5052028;28;20172;-70
2023/09/18 10:57:05;;;;;;;2.13;1.00;;;27.30;99.90;;;;;;5053756;28;20231;-72
2023/09/18 10:59:31;;;;;;;1.63;0.90;;;27.30;99.90;;;;;;5052379;28;20275;-71
2023/09/18 11:02:02;;;;;;;2.05;1.00;;;27.40;99.90;;;;;;5063392;28;20459;-71
2023/09/18 11:04:33;;;;;;;1.88;0.93;;;27.50;99.90;;;;;;5038456;28;20169;-68
2023/09/18 11:06:59;;;;;;;2.03;1.08;;;27.60;99.90;;;;;;5062414;28;20208;-69
2023/09/18 11:09:27;;;;;;;1.92;1.00;;;27.60;99.90;;;;;;5036300;28;20173;-71
2023/09/18 11:12:19;;;;;;;2.15;1.05;;;27.70;99.90;;;;;;5035305;28;20208;-69
2023/09/18 11:14:52;;;;;;;1.60;1.08;;;27.70;99.90;;;;;;5069180;28;20224;-70
2023/09/18 11:17:40;;;;;;;1.42;1.00;;;27.70;99.90;;;;;;5038534;28;20170;-70
2023/09/18 11:20:11;;;;;;;2.10;1.00;;;27.70;99.90;;;;;;5052052;28;20181;-65
2023/09/18 11:22:48;;;;;;;1.80;1.02;;;27.70;99.90;;;;;;5053682;28;20198;-67
2023/09/18 11:25:37;;;;;;;4.18;1.33;;;27.70;99.90;;;;;;5069085;28;20177;-71
2023/09/18 11:28:07;;;;;;;3.40;1.45;;;27.80;99.90;;;;;;5053201;28;20177;-69
2023/09/18 11:30:38;;;;;;;1.60;1.17;;;27.80;99.90;;;;;;5035683;28;20188;-68
2023/09/18 11:33:08;;;;;;;1.05;0.90;;;27.90;99.90;;;;;;5052510;28;20213;-68
2023/09/18 11:35:35;;;;;;;1.27;0.95;;;27.90;99.90;;;;;;5049757;28;20209;-68
2023/09/18 11:38:13;;;;;;;1.52;1.00;;;27.90;99.90;;;;;;5060374;28;20185;-71
2023/09/18 11:40:46;;;;;;;1.60;1.05;;;27.90;99.90;;;;;;5053034;28;20174;-69
2023/09/18 11:43:35;;;;;;;1.25;0.93;;;27.90;99.90;;;;;;5053731;28;20271;-70
2023/09/18 11:46:05;;;;;;;3.65;1.25;;;28.00;99.90;;;;;;5056556;28;20181;-69
2023/09/18 11:48:34;;;;;;;2.00;1.10;;;28.00;99.90;;;;;;5064072;28;20186;-68
2023/09/18 11:51:04;;;;;;;2.22;1.10;;;28.00;99.90;;;;;;5035101;28;20438;-70
2023/09/18 11:53:38;;;;;;;1.65;0.93;;;28.00;99.90;;;;;;5055992;28;20184;-70
2023/09/18 11:56:05;;;;;;;2.50;1.20;;;28.10;99.90;;;;;;5027607;28;20258;-66
2023/09/18 11:58:49;;;;;;;4.65;1.20;;;28.20;99.90;;;;;;5031128;28;20200;-70
2023/09/18 12:01:17;;;;;;;2.67;1.27;;;28.30;99.90;;;;;;5039479;28;20196;-70
2023/09/18 12:03:43;;;;;;;2.88;1.00;;;28.30;99.90;;;;;;5038048;28;20226;-69
2023/09/18 12:06:12;;;;;;;1.23;0.98;;;28.40;99.90;;;;;;5056307;28;20287;-71
2023/09/18 12:08:39;;;;;;;1.80;1.00;;;28.40;99.90;;;;;;5040552;28;20188;-70
2023/09/18 12:11:10;;;;;;;2.25;1.20;;;28.40;99.90;;;;;;5056346;28;20189;-71
2023/09/18 12:13:37;;;;;;;2.30;1.23;;;28.40;99.90;;;;;;5041523;28;20193;-71
2023/09/18 12:16:09;;;;;;;2.17;1.38;;;28.40;99.90;;;;;;5039366;28;20201;-70
2023/09/18 12:18:37;;;;;;;1.80;1.25;;;28.30;99.90;;;;;;5071925;28;20173;-68
2023/09/18 12:21:06;;;;;;;1.83;1.20;;;28.30;99.90;;;;;;5038919;28;20189;-70
2023/09/18 12:23:39;;;;;;;3.83;1.10;;;28.30;99.90;;;;;;5056490;28;20169;-71
2023/09/18 12:26:06;;;;;;;2.03;0.90;;;28.30;99.90;;;;;;5039583;28;20180;-71
2023/09/18 12:28:36;;;;;;;1.13;0.88;;;28.30;99.90;;;;;;5055664;28;20208;-65
2023/09/18 12:31:05;;;;;;;1.77;1.10;;;28.30;99.90;;;;;;5055573;28;20177;-70
2023/09/18 12:33:37;;;;;;;2.35;1.30;;;28.30;99.90;;;;;;5055009;28;20208;-70
2023/09/18 12:36:04;;;;;;;1.60;1.00;;;28.30;99.90;;;;;;5056936;28;20224;-70
2023/09/18 12:38:31;;;;;;;1.10;1.00;;;28.30;99.90;;;;;;5054344;28;20247;-70
2023/09/18 12:41:05;;;;;;;2.53;1.10;;;28.30;99.90;;;;;;5055739;28;20173;-68
2023/09/18 12:43:39;;;;;;;1.20;0.90;;;28.40;99.90;;;;;;5036757;28;20215;-69
2023/09/18 12:46:09;;;;;;;1.75;1.00;;;28.40;99.90;;;;;;5053928;28;20260;-70
2023/09/18 12:48:38;;;;;;;1.40;0.98;;;28.40;99.90;;;;;;5055443;28;20180;-69
2023/09/18 12:51:05;;;;;;;2.45;1.00;;;28.40;99.90;;;;;;5051310;28;20205;-71
2023/09/18 12:53:32;;;;;;;3.83;1.27;;;28.50;99.90;;;;;;5054010;28;20180;-70